Station Historical Data
Daily Summary for January 6, 2017 Units:  English    Metric   Both
« Previous Day
Next Day »
Daily Weekly Monthly Yearly Custom
  High: Low: Average:
Temperature: 29.4 °F 28.4 °F 29.1 °F
Dew Point: 26.8 °F 25.6 °F 26.4 °F
Humidity: 90% 89% 89%
Wind Speed: 4.6mph 0.0mph 1.1mph
Wind Gust: 4.6mph - -
Wind- - SSE
Pressure: 30.10 in 30.07 in -
Precipitation: 0.00 in    
Historical Graphs
 
 
Tabular Data for January 6, 2017
Time Temperature Dew Point Pressure Wind Wind Speed Wind Gust Humidity Rainfall Rate (Hourly) solar Conditions
20:48 29.2 °F 26.4 °F 30.08 in ENE 3.5 mph 3.5 mph 89% 0.00 in 0.0 W/m2
20:49 29.2 °F 26.4 °F 30.08 in SE 1.2 mph 1.2 mph 89% 0.00 in 0.0 W/m2
20:50 29.3 °F 26.5 °F 30.08 in South 4.6 mph 4.6 mph 89% 0.00 in 0.0 W/m2
20:52 29.3 °F 26.5 °F 30.07 in WSW 1.2 mph 1.2 mph 89% 0.00 in 0.0 W/m2
20:57 29.4 °F 26.6 °F 30.07 in Calm     89% 0.00 in 0.0 W/m2
21:02 29.4 °F 26.6 °F 30.07 in East 1.2 mph 1.2 mph 89% 0.00 in 0.0 W/m2 -RA
21:07 29.4 °F 26.6 °F 30.08 in Calm     89% 0.00 in 0.0 W/m2 -RA
21:12 29.4 °F 26.6 °F 30.09 in Calm     89% 0.00 in 0.0 W/m2 -RA
21:17 29.4 °F 26.6 °F 30.09 in ESE 1.2 mph 1.2 mph 89% 0.00 in 0.0 W/m2 -RA
21:22 29.4 °F 26.6 °F 30.08 in Calm     89% 0.00 in 0.0 W/m2 -RA
21:27 29.4 °F 26.6 °F 30.09 in WSW 2.0 mph 2.0 mph 89% 0.00 in 0.0 W/m2 -RA
21:32 29.4 °F 26.6 °F 30.09 in Calm     89% 0.00 in 0.0 W/m2 -RA
21:37 29.3 °F 26.5 °F 30.08 in East 1.2 mph 1.2 mph 89% 0.00 in 0.0 W/m2 -RA
21:42 29.3 °F 26.5 °F 30.09 in East 1.2 mph 1.2 mph 89% 0.00 in 0.0 W/m2 -RA
21:47 29.3 °F 26.7 °F 30.10 in SW 1.2 mph   90% 0.00 in 0.0 W/m2 -RA
21:52 29.4 °F 26.8 °F 30.10 in SE 1.0 mph 1.0 mph 90% 0.00 in 0.0 W/m2 -RA
21:57 29.4 °F 26.6 °F 30.10 in West 1.2 mph   89% 0.00 in 0.0 W/m2 -RA
22:02 29.4 °F 26.8 °F 30.10 in Calm     90% 0.00 in 0.0 W/m2 -RA
22:07 29.4 °F 26.8 °F 30.10 in East 1.2 mph 1.2 mph 90% 0.00 in 0.0 W/m2 -RA
22:12 29.3 °F 26.5 °F 30.10 in NE 1.2 mph   89% 0.00 in 0.0 W/m2 -RA
22:18 29.3 °F 26.7 °F 30.10 in Calm     90% 0.00 in 0.0 W/m2 -RA
22:23 29.3 °F 26.7 °F 30.10 in Calm     90% 0.00 in 0.0 W/m2 -RA
22:28 29.2 °F 26.4 °F 30.10 in Calm     89% 0.00 in 0.0 W/m2 -RA
22:33 29.2 °F 26.4 °F 30.10 in ENE 1.2 mph 1.2 mph 89% 0.00 in 0.0 W/m2 -RA
22:38 29.3 °F 26.5 °F 30.10 in WSW 3.5 mph 3.5 mph 89% 0.00 in 0.0 W/m2 -RA
22:43 29.3 °F 26.5 °F 30.10 in SW 1.2 mph 1.2 mph 89% 0.00 in 0.0 W/m2 -RA
22:48 29.2 °F 26.4 °F 30.09 in SSE 1.2 mph 1.2 mph 89% 0.00 in 0.0 W/m2 -RA
22:53 29.1 °F 26.3 °F 30.08 in West 1.2 mph   89% 0.00 in 0.0 W/m2 -RA
22:58 29.1 °F 26.3 °F 30.08 in East 1.2 mph 1.2 mph 89% 0.00 in 0.0 W/m2 -RA
23:03 29.0 °F 26.2 °F 30.08 in Calm     89% 0.00 in 0.0 W/m2 -RA
23:08 29.0 °F 26.2 °F 30.09 in Calm     89% 0.00 in 0.0 W/m2 -RA
23:13 29.0 °F 26.2 °F 30.08 in SSE 1.2 mph   89% 0.00 in 0.0 W/m2 -RA
23:18 28.8 °F 26.0 °F 30.07 in East 1.2 mph 1.2 mph 89% 0.00 in 0.0 W/m2 -RA
23:23 28.7 °F 25.9 °F 30.09 in NW 1.2 mph 1.2 mph 89% 0.00 in 0.0 W/m2 -RA
23:28 28.6 °F 25.8 °F 30.10 in NNE 1.2 mph 1.2 mph 89% 0.00 in 0.0 W/m2 -RA
23:33 28.6 °F 25.8 °F 30.10 in WNW 1.2 mph 1.2 mph 89% 0.00 in 0.0 W/m2 -RA
23:38 28.5 °F 25.7 °F 30.10 in East 1.2 mph 1.2 mph 89% 0.00 in 0.0 W/m2 -RA
23:43 28.6 °F 26.0 °F 30.10 in NNE 1.2 mph 1.2 mph 90% 0.00 in 0.0 W/m2 -RA
23:48 28.5 °F 25.9 °F 30.10 in Calm   0.1 mph 90% 0.00 in 0.0 W/m2 -RA
23:53 28.6 °F 25.8 °F 30.08 in SSE 1.2 mph 1.2 mph 89% 0.00 in 0.0 W/m2 -RA
23:58 28.4 °F 25.6 °F 30.10 in NE 4.6 mph 4.6 mph 89% 0.00 in 0.0 W/m2 -RA
Piedmont Bend
Compliments of Weather Underground - 4 mb